Time;durP1;ratioP1;P1;durP2;ratioP2;P2;SDS_P1;SDS_P2;PMS_P1;PMS_P2;Temp;Humidity;BMP_temperature;BMP_pressure;BME280_temperature;BME280_humidity;BME280_pressure;Samples;Min_cycle;Max_cycle;Signal;HPM_P1;HPM_P2
2022/03/08 00:02:04;;;;;;;9.13;5.40;;;5.40;1.00;;;;;;5079236;28;20456;-75
2022/03/08 00:04:33;;;;;;;7.83;6.23;;;5.50;1.00;;;;;;5071749;28;20478;-75
2022/03/08 00:07:01;;;;;;;7.68;6.15;;;5.80;1.00;;;;;;5080052;28;20480;-75
2022/03/08 00:09:30;;;;;;;7.13;5.55;;;5.60;1.00;;;;;;5080592;28;20196;-75
2022/03/08 00:11:58;;;;;;;10.63;7.30;;;5.50;1.00;;;;;;5078368;28;20322;-75
2022/03/08 00:14:26;;;;;;;12.55;6.90;;;5.50;1.00;;;;;;5087127;28;20979;-75
2022/03/08 00:16:56;;;;;;;8.30;7.10;;;5.50;1.00;;;;;;5082285;28;20258;-75
2022/03/08 00:19:24;;;;;;;7.78;5.20;;;5.60;1.00;;;;;;5078715;28;20564;-75
2022/03/08 00:21:52;;;;;;;7.50;6.00;;;5.50;1.00;;;;;;5079353;28;20192;-75
2022/03/08 00:24:20;;;;;;;9.52;7.70;;;5.50;1.00;;;;;;5080964;28;20488;-75
2022/03/08 00:26:49;;;;;;;9.25;6.82;;;5.60;1.00;;;;;;5091317;28;20216;-75
2022/03/08 00:29:17;;;;;;;9.23;6.35;;;5.60;1.00;;;;;;5083145;28;20828;-74
2022/03/08 00:31:45;;;;;;;9.27;6.55;;;5.50;1.00;;;;;;5077386;28;20192;-74
2022/03/08 00:34:15;;;;;;;9.50;6.43;;;5.60;1.00;;;;;;5080584;28;20190;-75
2022/03/08 00:36:43;;;;;;;8.73;6.60;;;5.60;1.00;;;;;;5076450;28;20492;-74
2022/03/08 00:39:11;;;;;;;9.57;6.22;;;5.60;1.00;;;;;;5083143;28;20442;-74
2022/03/08 00:41:40;;;;;;;10.10;7.00;;;5.50;1.00;;;;;;5084437;28;20204;-75
2022/03/08 00:44:08;;;;;;;8.63;6.40;;;5.50;1.00;;;;;;5081159;28;20213;-75
2022/03/08 00:46:37;;;;;;;8.75;6.80;;;5.50;1.00;;;;;;5087425;28;21032;-75
2022/03/08 00:49:05;;;;;;;9.73;6.70;;;5.70;1.00;;;;;;5084836;28;20618;-76
2022/03/08 00:51:35;;;;;;;8.13;6.82;;;5.50;1.00;;;;;;5081776;28;20459;-74
2022/03/08 00:54:04;;;;;;;9.77;7.63;;;5.40;1.00;;;;;;5079483;28;20512;-74
2022/03/08 00:56:32;;;;;;;9.17;6.70;;;5.40;1.00;;;;;;5076652;28;20565;-75
2022/03/08 00:59:00;;;;;;;9.27;6.10;;;5.50;1.00;;;;;;5077232;28;20460;-74
2022/03/08 01:01:29;;;;;;;8.98;7.20;;;5.50;1.00;;;;;;5086897;28;20487;-74
2022/03/08 01:03:58;;;;;;;9.63;6.32;;;5.40;1.00;;;;;;5084152;28;20220;-74
2022/03/08 01:06:26;;;;;;;9.10;6.60;;;5.40;1.00;;;;;;5088837;28;20226;-76
2022/03/08 01:08:55;;;;;;;8.75;6.47;;;5.30;1.00;;;;;;5080237;28;20529;-75
2022/03/08 01:11:24;;;;;;;10.27;7.05;;;5.30;1.00;;;;;;5083057;28;20206;-75
2022/03/08 01:13:52;;;;;;;9.40;6.60;;;5.30;1.00;;;;;;5085428;28;20257;-76
2022/03/08 01:16:20;;;;;;;9.88;7.00;;;5.40;1.00;;;;;;5082213;28;20481;-75
2022/03/08 01:18:49;;;;;;;8.97;6.50;;;5.00;1.00;;;;;;5084367;28;20235;-75
2022/03/08 01:21:17;;;;;;;9.57;6.40;;;5.20;1.00;;;;;;5085806;28;20469;-75
2022/03/08 01:23:45;;;;;;;6.37;5.50;;;5.20;1.00;;;;;;5083484;28;20238;-75
2022/03/08 01:26:15;;;;;;;10.10;7.40;;;5.10;1.00;;;;;;5085525;28;20470;-75
2022/03/08 01:28:43;;;;;;;10.88;7.28;;;5.20;1.00;;;;;;5081583;28;20454;-75
2022/03/08 01:31:11;;;;;;;9.00;6.07;;;5.10;1.00;;;;;;5083967;28;20200;-75
2022/03/08 01:33:40;;;;;;;8.23;6.57;;;5.10;1.00;;;;;;5085131;28;20447;-75
2022/03/08 01:36:08;;;;;;;7.90;6.38;;;5.10;1.00;;;;;;5084555;28;20475;-74
2022/03/08 01:38:36;;;;;;;8.88;5.78;;;5.00;1.00;;;;;;5076719;28;20200;-74
2022/03/08 01:41:05;;;;;;;8.30;6.25;;;5.00;1.00;;;;;;5081697;28;20225;-74
2022/03/08 01:43:34;;;;;;;9.23;6.35;;;5.00;1.00;;;;;;5080541;28;20208;-74
2022/03/08 01:46:03;;;;;;;7.57;6.28;;;5.00;1.00;;;;;;5085665;28;20268;-74
2022/03/08 01:48:32;;;;;;;7.75;5.50;;;5.00;1.00;;;;;;5078299;28;20207;-74
2022/03/08 01:51:00;;;;;;;9.35;6.03;;;5.00;1.00;;;;;;5079920;28;20203;-73
2022/03/08 01:53:29;;;;;;;7.60;6.07;;;5.00;1.00;;;;;;5078051;28;20200;-74
2022/03/08 01:55:57;;;;;;;7.63;6.38;;;5.00;1.00;;;;;;5078590;28;20199;-74
2022/03/08 01:58:26;;;;;;;11.00;7.25;;;4.90;1.00;;;;;;5078504;28;20192;-74
2022/03/08 02:00:55;;;;;;;7.63;5.93;;;4.80;1.00;;;;;;5078398;28;20591;-73
2022/03/08 02:03:24;;;;;;;10.20;6.40;;;4.80;1.00;;;;;;5080481;28;20193;-74
2022/03/08 02:05:52;;;;;;;7.73;6.03;;;4.80;1.00;;;;;;5080946;28;20308;-76
2022/03/08 02:08:21;;;;;;;8.13;5.20;;;4.80;1.00;;;;;;5074356;28;20466;-75
2022/03/08 02:10:49;;;;;;;8.00;6.30;;;4.90;1.00;;;;;;5078062;28;20195;-74
2022/03/08 02:13:17;;;;;;;9.48;5.45;;;5.00;1.00;;;;;;5077349;28;20287;-74
2022/03/08 02:15:49;;;;;;;10.73;6.60;;;4.90;1.00;;;;;;5084323;28;20733;-75
2022/03/08 02:18:19;;;;;;;7.45;6.10;;;4.90;1.00;;;;;;5084972;28;20196;-74
2022/03/08 02:20:48;;;;;;;7.35;5.35;;;4.90;1.00;;;;;;5080208;28;20213;-74
2022/03/08 02:23:18;;;;;;;8.23;6.75;;;4.90;1.00;;;;;;5086983;28;20208;-74
2022/03/08 02:25:46;;;;;;;9.80;5.90;;;4.80;1.00;;;;;;5089371;28;20231;-75
2022/03/08 02:28:16;;;;;;;7.88;5.65;;;4.90;1.00;;;;;;5074603;28;20461;-74
2022/03/08 02:30:44;;;;;;;7.03;5.38;;;4.80;1.00;;;;;;5080603;28;20191;-75
2022/03/08 02:33:12;;;;;;;8.93;6.82;;;4.90;1.00;;;;;;5083745;28;20551;-75
2022/03/08 02:35:40;;;;;;;9.77;6.00;;;4.90;1.00;;;;;;5075445;28;20196;-74
2022/03/08 02:38:08;;;;;;;6.53;5.63;;;4.90;1.00;;;;;;5073254;28;20497;-74
2022/03/08 02:40:41;;;;;;;6.43;5.18;;;4.90;1.00;;;;;;5075606;28;20617;-75
2022/03/08 02:43:12;;;;;;;7.88;5.88;;;4.90;1.00;;;;;;5081869;28;20211;-74
2022/03/08 02:45:40;;;;;;;5.82;4.85;;;4.90;1.00;;;;;;5082820;28;20208;-74
2022/03/08 02:48:09;;;;;;;11.77;6.75;;;4.80;1.00;;;;;;5081874;28;20690;-74
2022/03/08 02:50:38;;;;;;;7.75;5.85;;;5.10;1.00;;;;;;5085835;28;20716;-75
2022/03/08 02:53:06;;;;;;;10.43;5.53;;;5.10;1.00;;;;;;5079536;28;20188;-76
2022/03/08 02:55:35;;;;;;;8.48;5.10;;;4.90;1.00;;;;;;5082065;28;20193;-75
2022/03/08 02:58:06;;;;;;;10.30;6.63;;;4.80;1.00;;;;;;5077152;28;20840;-75
2022/03/08 03:00:35;;;;;;;7.47;5.97;;;4.70;1.00;;;;;;5075995;28;20628;-75
2022/03/08 03:03:05;;;;;;;11.52;7.38;;;4.90;1.00;;;;;;5085913;28;20216;-75
2022/03/08 03:05:33;;;;;;;13.82;7.53;;;4.60;1.00;;;;;;5082574;28;20219;-77
2022/03/08 03:08:02;;;;;;;7.82;5.13;;;4.70;1.00;;;;;;5083058;28;20224;-76
2022/03/08 03:10:30;;;;;;;9.35;5.60;;;4.60;1.00;;;;;;5076140;28;20201;-75
2022/03/08 03:12:59;;;;;;;7.38;5.10;;;4.60;1.00;;;;;;5080075;28;20208;-76
2022/03/08 03:15:30;;;;;;;7.95;5.40;;;4.70;1.00;;;;;;5078244;28;20706;-76
2022/03/08 03:17:59;;;;;;;8.02;7.20;;;4.70;1.00;;;;;;5078540;28;20251;-74
2022/03/08 03:20:28;;;;;;;7.25;4.78;;;4.80;1.00;;;;;;5071280;28;20215;-74
2022/03/08 03:22:57;;;;;;;7.10;5.17;;;4.80;1.00;;;;;;5073637;28;20200;-76
2022/03/08 03:25:25;;;;;;;6.40;5.53;;;4.80;1.00;;;;;;5084648;28;20899;-74
2022/03/08 03:27:53;;;;;;;10.82;6.03;;;4.70;1.00;;;;;;5081994;28;20625;-75
2022/03/08 03:30:21;;;;;;;6.47;5.00;;;4.70;1.00;;;;;;5080069;28;21026;-76
2022/03/08 03:32:51;;;;;;;7.45;5.18;;;4.70;1.00;;;;;;5084705;28;20204;-75
2022/03/08 03:35:19;;;;;;;6.15;4.55;;;4.80;1.00;;;;;;5076093;28;20676;-77
2022/03/08 03:37:48;;;;;;;6.85;5.40;;;4.80;1.00;;;;;;5078834;28;20251;-76
2022/03/08 03:40:17;;;;;;;6.78;6.07;;;4.80;1.00;;;;;;5072446;28;20199;-75
2022/03/08 03:42:45;;;;;;;6.80;5.45;;;4.80;1.00;;;;;;5075679;28;20614;-74
2022/03/08 03:45:14;;;;;;;10.48;5.63;;;5.10;1.00;;;;;;5080591;28;20212;-74
2022/03/08 03:47:42;;;;;;;5.85;5.35;;;4.80;1.00;;;;;;5083152;28;20224;-74
2022/03/08 03:50:13;;;;;;;6.05;5.45;;;4.80;1.00;;;;;;5079145;28;20219;-74
2022/03/08 03:52:41;;;;;;;5.15;4.13;;;4.70;1.00;;;;;;5082022;28;20711;-74
2022/03/08 03:55:12;;;;;;;8.10;5.47;;;4.70;1.00;;;;;;5079861;28;20206;-74
2022/03/08 03:57:40;;;;;;;6.65;5.07;;;4.60;1.00;;;;;;5072277;28;20223;-74
2022/03/08 04:00:11;;;;;;;10.48;5.65;;;4.60;1.00;;;;;;5074583;28;20196;-74
2022/03/08 04:02:40;;;;;;;8.43;5.30;;;4.70;1.00;;;;;;5075820;28;22092;-75
2022/03/08 04:05:09;;;;;;;8.00;7.20;;;4.70;1.00;;;;;;5075790;28;20237;-75
2022/03/08 04:07:39;;;;;;;11.88;7.28;;;4.50;1.00;;;;;;5072463;28;20240;-75
2022/03/08 04:10:10;;;;;;;10.35;7.25;;;4.30;1.00;;;;;;5079976;28;20196;-74
2022/03/08 04:12:38;;;;;;;10.93;6.40;;;4.20;1.00;;;;;;5079888;28;20212;-75
2022/03/08 04:15:07;;;;;;;12.02;8.13;;;4.10;1.00;;;;;;5075752;28;20540;-74
2022/03/08 04:17:35;;;;;;;11.45;7.95;;;4.00;1.00;;;;;;5079261;28;20704;-75
2022/03/08 04:20:04;;;;;;;13.02;8.15;;;3.90;1.00;;;;;;5074096;28;20212;-75
2022/03/08 04:22:33;;;;;;;11.98;8.48;;;3.90;1.00;;;;;;5073002;28;20200;-74
2022/03/08 04:25:07;;;;;;;11.35;7.05;;;3.90;1.00;;;;;;5080272;28;20207;-75
2022/03/08 04:27:36;;;;;;;13.90;7.10;;;3.80;1.00;;;;;;5081272;28;20264;-76
2022/03/08 04:30:05;;;;;;;9.02;6.95;;;3.90;1.00;;;;;;5084107;28;20204;-75
2022/03/08 04:32:33;;;;;;;6.55;5.15;;;3.80;1.00;;;;;;5077870;28;20210;-76
2022/03/08 04:35:02;;;;;;;9.40;5.97;;;4.00;1.00;;;;;;5078922;28;20203;-77
2022/03/08 04:37:30;;;;;;;6.57;5.15;;;4.00;1.00;;;;;;5077471;28;20236;-74
2022/03/08 04:39:59;;;;;;;5.93;5.38;;;4.10;1.00;;;;;;5080700;28;20289;-75
2022/03/08 04:42:28;;;;;;;5.55;4.85;;;4.10;1.00;;;;;;5077110;28;20197;-75
2022/03/08 04:44:56;;;;;;;9.10;6.55;;;4.10;1.00;;;;;;5070472;28;21040;-77
2022/03/08 04:47:25;;;;;;;7.82;5.95;;;4.10;1.00;;;;;;5078120;28;20231;-75
2022/03/08 04:49:53;;;;;;;10.00;6.18;;;4.20;1.00;;;;;;5078627;28;20199;-75
2022/03/08 04:52:21;;;;;;;8.65;6.22;;;4.10;1.00;;;;;;5077553;28;20218;-75
2022/03/08 04:54:49;;;;;;;13.25;9.40;;;4.10;1.00;;;;;;5072719;28;20432;-75
2022/03/08 04:57:18;;;;;;;11.27;7.60;;;4.00;1.00;;;;;;5086110;28;20207;-75
2022/03/08 04:59:47;;;;;;;8.95;7.07;;;3.90;1.00;;;;;;5086306;28;20674;-75
2022/03/08 05:02:15;;;;;;;9.90;6.97;;;3.80;1.00;;;;;;5079891;28;20208;-74
2022/03/08 05:04:44;;;;;;;6.25;5.05;;;3.90;1.00;;;;;;5075323;28;20202;-75
2022/03/08 05:07:12;;;;;;;5.70;5.10;;;3.90;1.00;;;;;;5081520;28;20252;-75
2022/03/08 05:09:40;;;;;;;6.38;4.00;;;4.10;1.00;;;;;;5086058;28;20208;-74
2022/03/08 05:12:09;;;;;;;6.63;5.10;;;3.90;1.00;;;;;;5084379;28;20219;-77
2022/03/08 05:14:37;;;;;;;7.20;4.30;;;4.00;1.00;;;;;;5076566;28;20207;-75
2022/03/08 05:17:07;;;;;;;6.10;4.38;;;4.10;1.00;;;;;;5085664;28;20619;-74
2022/03/08 05:19:35;;;;;;;9.00;6.15;;;4.10;1.00;;;;;;5086875;28;20225;-74
2022/03/08 05:22:04;;;;;;;9.25;5.85;;;4.00;1.00;;;;;;5085491;28;20386;-73
2022/03/08 05:24:33;;;;;;;10.77;6.95;;;3.80;1.00;;;;;;5078378;28;20208;-74
2022/03/08 05:27:01;;;;;;;12.10;6.75;;;3.80;1.00;;;;;;5084250;28;20738;-75
2022/03/08 05:29:29;;;;;;;9.10;6.88;;;3.80;1.00;;;;;;5091632;28;20309;-75
2022/03/08 05:31:57;;;;;;;11.57;8.20;;;3.70;1.00;;;;;;5083984;28;20202;-75
2022/03/08 05:34:27;;;;;;;9.15;6.80;;;3.70;1.00;;;;;;5082690;28;20273;-74
2022/03/08 05:36:56;;;;;;;11.88;7.20;;;3.80;1.00;;;;;;5085035;28;20303;-75
2022/03/08 05:39:24;;;;;;;13.38;6.97;;;3.60;1.00;;;;;;5084560;28;20213;-74
2022/03/08 05:41:53;;;;;;;15.05;8.15;;;3.70;1.00;;;;;;5083983;28;20187;-74
2022/03/08 05:44:21;;;;;;;10.27;7.90;;;3.50;1.00;;;;;;5076719;28;20304;-74
2022/03/08 05:46:50;;;;;;;14.30;7.82;;;3.60;1.00;;;;;;5075040;28;20220;-74
2022/03/08 05:49:18;;;;;;;11.20;7.63;;;3.60;1.00;;;;;;5085343;28;20202;-72
2022/03/08 05:51:47;;;;;;;13.32;7.78;;;3.60;1.00;;;;;;5085189;28;20200;-75
2022/03/08 05:54:16;;;;;;;15.60;10.35;;;3.50;1.00;;;;;;5074128;28;20442;-74
2022/03/08 05:56:44;;;;;;;11.10;8.85;;;3.40;1.00;;;;;;5076783;28;20225;-74
2022/03/08 05:59:12;;;;;;;14.38;9.18;;;3.20;1.00;;;;;;5083108;28;20197;-74
2022/03/08 06:01:40;;;;;;;12.10;8.15;;;3.20;1.00;;;;;;5079413;28;20207;-74
2022/03/08 06:04:09;;;;;;;12.77;7.90;;;3.20;1.00;;;;;;5078099;28;20902;-74
2022/03/08 06:06:37;;;;;;;12.32;8.45;;;3.20;1.00;;;;;;5078080;28;20233;-74
2022/03/08 06:09:07;;;;;;;12.02;6.82;;;3.20;1.00;;;;;;5085765;28;20193;-74
2022/03/08 06:11:35;;;;;;;10.98;7.68;;;3.20;1.00;;;;;;5081433;28;20211;-74
2022/03/08 06:14:03;;;;;;;19.50;8.20;;;3.30;1.00;;;;;;5076927;28;20204;-75
2022/03/08 06:16:31;;;;;;;11.65;8.73;;;3.30;1.00;;;;;;5079138;28;20269;-74
2022/03/08 06:18:59;;;;;;;12.38;8.80;;;3.20;1.00;;;;;;5084298;28;20196;-74
2022/03/08 06:21:33;;;;;;;16.20;10.35;;;3.20;1.00;;;;;;5082662;28;20529;-74
2022/03/08 06:24:01;;;;;;;13.73;8.88;;;3.20;1.00;;;;;;5076029;28;20211;-74
2022/03/08 06:26:31;;;;;;;16.48;8.80;;;3.30;1.00;;;;;;5078556;28;20260;-73
2022/03/08 06:28:59;;;;;;;14.23;8.27;;;3.40;1.00;;;;;;5080522;28;20229;-74
2022/03/08 06:31:27;;;;;;;12.93;7.35;;;3.40;1.00;;;;;;5080709;28;20211;-74
2022/03/08 06:33:55;;;;;;;11.45;8.68;;;3.30;1.00;;;;;;5076787;28;20202;-74
2022/03/08 06:36:29;;;;;;;9.90;6.85;;;3.30;1.00;;;;;;5076690;28;21857;-74
2022/03/08 06:38:57;;;;;;;8.68;6.60;;;3.50;1.00;;;;;;5082435;28;20573;-75
2022/03/08 06:41:26;;;;;;;9.02;7.80;;;3.60;1.00;;;;;;5084540;28;20438;-75
2022/03/08 06:43:55;;;;;;;8.30;5.82;;;3.70;1.00;;;;;;5074567;28;20213;-77
2022/03/08 06:46:23;;;;;;;6.43;5.80;;;4.00;1.00;;;;;;5075917;28;20228;-75
2022/03/08 06:48:52;;;;;;;5.47;4.93;;;3.90;1.00;;;;;;5084600;28;20242;-75
2022/03/08 06:51:20;;;;;;;4.13;3.60;;;4.00;1.00;;;;;;5082344;28;20245;-75
2022/03/08 06:53:48;;;;;;;7.22;4.78;;;4.20;1.00;;;;;;5076414;28;20526;-75
2022/03/08 06:56:16;;;;;;;7.45;4.80;;;4.20;1.00;;;;;;5075678;28;20230;-75
2022/03/08 06:58:45;;;;;;;4.45;3.30;;;4.50;1.00;;;;;;5084131;28;20687;-74
2022/03/08 07:01:14;;;;;;;3.78;3.35;;;4.40;1.00;;;;;;5087043;28;20559;-75
2022/03/08 07:03:43;;;;;;;5.07;4.13;;;4.50;1.00;;;;;;5072758;28;20194;-75
2022/03/08 07:06:11;;;;;;;4.22;3.75;;;4.60;1.00;;;;;;5074946;28;20329;-75
2022/03/08 07:08:39;;;;;;;4.40;3.90;;;4.70;1.00;;;;;;5082205;28;20207;-75
2022/03/08 07:11:08;;;;;;;7.95;3.53;;;4.70;1.00;;;;;;5082191;28;20196;-74
2022/03/08 07:13:37;;;;;;;4.60;3.58;;;4.80;1.00;;;;;;5088164;28;20622;-75
2022/03/08 07:16:05;;;;;;;3.80;3.30;;;4.90;1.00;;;;;;5081566;28;20619;-74
2022/03/08 07:18:35;;;;;;;4.45;3.45;;;5.00;1.00;;;;;;5081271;28;20773;-75
2022/03/08 07:21:04;;;;;;;4.25;3.20;;;5.00;1.00;;;;;;5072123;28;20249;-75
2022/03/08 07:23:33;;;;;;;4.35;3.95;;;5.00;1.00;;;;;;5076652;28;20210;-76
2022/03/08 07:26:01;;;;;;;3.60;3.13;;;5.10;1.00;;;;;;5082029;28;20281;-75
2022/03/08 07:28:30;;;;;;;3.63;3.33;;;5.10;1.00;;;;;;5082721;28;20212;-75
2022/03/08 07:31:01;;;;;;;5.13;4.32;;;5.20;1.00;;;;;;5075622;28;20247;-76
2022/03/08 07:33:30;;;;;;;7.55;3.97;;;5.40;1.00;;;;;;5083667;28;20253;-76
2022/03/08 07:36:00;;;;;;;7.50;4.10;;;5.20;1.00;;;;;;5081797;28;20206;-76
2022/03/08 07:38:28;;;;;;;4.53;4.15;;;5.20;1.00;;;;;;5077042;28;20192;-77
2022/03/08 07:41:02;;;;;;;6.22;4.70;;;5.20;1.00;;;;;;5079648;28;21719;-76
2022/03/08 07:43:34;;;;;;;5.20;3.65;;;5.20;1.00;;;;;;5086495;28;20557;-76
2022/03/08 07:46:02;;;;;;;4.63;4.22;;;5.30;1.00;;;;;;5081975;28;20223;-74
2022/03/08 07:48:31;;;;;;;7.55;4.25;;;5.30;1.00;;;;;;5083308;28;20310;-74
2022/03/08 07:51:01;;;;;;;5.75;4.18;;;5.40;1.00;;;;;;5077808;28;20248;-74
2022/03/08 07:53:31;;;;;;;4.25;3.70;;;5.40;1.00;;;;;;5084226;28;20709;-76
2022/03/08 07:55:59;;;;;;;6.30;4.43;;;5.60;1.00;;;;;;5076737;28;20204;-75
2022/03/08 07:58:27;;;;;;;5.47;3.38;;;5.70;1.00;;;;;;5076591;28;20195;-75
2022/03/08 08:00:56;;;;;;;6.13;4.10;;;5.80;1.00;;;;;;5081541;28;20202;-74
2022/03/08 08:03:25;;;;;;;6.53;4.00;;;6.00;1.00;;;;;;5083431;28;20865;-74
2022/03/08 08:05:54;;;;;;;6.83;4.40;;;6.10;1.00;;;;;;5073699;28;20565;-74
2022/03/08 08:08:23;;;;;;;5.05;4.00;;;6.20;1.00;;;;;;5074017;28;20478;-75
2022/03/08 08:10:51;;;;;;;4.40;4.00;;;6.40;1.00;;;;;;5076632;28;20210;-76
2022/03/08 08:13:20;;;;;;;5.93;3.80;;;6.60;1.00;;;;;;5084271;28;20504;-76
2022/03/08 08:15:48;;;;;;;6.23;4.80;;;6.80;1.00;;;;;;5077043;28;20471;-77
2022/03/08 08:18:20;;;;;;;4.40;4.10;;;7.00;1.00;;;;;;5087003;28;20453;-75
2022/03/08 08:20:49;;;;;;;4.93;4.53;;;7.20;1.00;;;;;;5081691;28;20476;-75
2022/03/08 08:23:17;;;;;;;4.23;3.83;;;7.40;1.00;;;;;;5075208;28;20458;-76
2022/03/08 08:25:47;;;;;;;4.73;4.23;;;7.50;1.00;;;;;;5076582;28;20446;-76
2022/03/08 08:28:15;;;;;;;6.93;4.77;;;7.60;1.00;;;;;;5078142;28;20485;-76
2022/03/08 08:30:43;;;;;;;4.60;4.10;;;7.80;1.00;;;;;;5081995;28;20966;-75
2022/03/08 08:33:11;;;;;;;4.57;4.17;;;8.00;1.00;;;;;;5081369;28;20446;-76
2022/03/08 08:35:40;;;;;;;4.77;3.80;;;8.10;1.00;;;;;;5075742;28;20462;-77
2022/03/08 08:38:08;;;;;;;3.83;3.50;;;8.30;1.00;;;;;;5084008;28;20479;-78
2022/03/08 08:40:36;;;;;;;6.40;4.83;;;8.50;1.00;;;;;;5082887;28;20474;-77
2022/03/08 08:43:07;;;;;;;5.40;4.73;;;8.40;1.00;;;;;;5083501;28;20515;-76
2022/03/08 08:45:37;;;;;;;4.10;3.47;;;8.50;1.00;;;;;;5077632;28;20482;-76
2022/03/08 08:48:06;;;;;;;6.10;4.63;;;8.50;1.00;;;;;;5081802;28;20497;-76
2022/03/08 08:50:35;;;;;;;6.03;4.53;;;8.50;1.00;;;;;;5085736;28;20459;-77
2022/03/08 08:53:04;;;;;;;5.80;5.23;;;8.80;1.00;;;;;;5084213;28;20457;-76
2022/03/08 08:55:33;;;;;;;6.35;5.75;;;8.90;1.00;;;;;;5078696;28;20443;-75
2022/03/08 08:58:02;;;;;;;5.53;5.00;;;9.40;1.00;;;;;;5079447;28;20222;-77
2022/03/08 09:00:31;;;;;;;4.87;3.77;;;9.30;1.00;;;;;;5086012;28;20727;-75
2022/03/08 09:03:01;;;;;;;5.60;4.10;;;9.40;1.00;;;;;;5086517;28;20443;-76
2022/03/08 09:05:35;;;;;;;4.97;4.47;;;9.50;1.00;;;;;;5085542;28;20506;-76
2022/03/08 09:08:04;;;;;;;5.40;4.70;;;9.60;1.00;;;;;;5091236;28;20584;-76
2022/03/08 09:10:32;;;;;;;4.93;3.90;;;9.40;1.00;;;;;;5090420;28;20464;-80
2022/03/08 09:13:00;;;;;;;4.80;4.00;;;9.50;1.00;;;;;;5080523;28;20456;-76
2022/03/08 09:15:31;;;;;;;4.10;3.40;;;9.70;1.00;;;;;;5077964;28;20446;-75
2022/03/08 09:18:00;;;;;;;5.10;3.80;;;9.80;1.00;;;;;;5089097;28;20475;-76
2022/03/08 09:20:28;;;;;;;4.10;3.80;;;9.80;1.00;;;;;;5090609;28;20469;-76
2022/03/08 09:22:57;;;;;;;4.00;3.60;;;9.90;1.00;;;;;;5085230;28;21045;-76
2022/03/08 09:25:25;;;;;;;3.77;3.40;;;10.10;1.00;;;;;;5079911;28;20469;-76
2022/03/08 09:27:53;;;;;;;7.60;3.40;;;10.40;1.00;;;;;;5080930;28;20494;-76
2022/03/08 09:30:22;;;;;;;4.20;3.80;;;10.60;1.00;;;;;;5084977;28;20446;-76
2022/03/08 09:32:52;;;;;;;4.17;3.60;;;10.70;1.00;;;;;;5077812;28;20444;-76
2022/03/08 09:35:20;;;;;;;3.53;3.23;;;10.70;1.00;;;;;;5082666;28;20472;-77
2022/03/08 09:37:48;;;;;;;4.10;3.67;;;10.50;1.00;;;;;;5080909;28;20473;-79
2022/03/08 09:40:16;;;;;;;4.67;3.70;;;10.70;1.00;;;;;;5085441;28;20456;-76
2022/03/08 09:42:45;;;;;;;4.10;3.80;;;10.90;1.00;;;;;;5083545;28;20465;-75
2022/03/08 09:45:14;;;;;;;4.10;3.80;;;10.80;1.00;;;;;;5073685;28;20970;-77
2022/03/08 09:47:43;;;;;;;4.63;4.23;;;11.00;1.00;;;;;;5088393;28;20229;-76
2022/03/08 09:50:14;;;;;;;6.37;4.40;;;11.20;1.00;;;;;;5084848;28;20776;-77
2022/03/08 09:52:47;;;;;;;3.70;3.30;;;11.40;1.00;;;;;;5078063;28;20501;-76
2022/03/08 09:55:17;;;;;;;4.60;3.03;;;11.30;1.00;;;;;;5080115;28;21186;-76
2022/03/08 09:57:48;;;;;;;3.30;3.00;;;11.50;1.00;;;;;;5085862;28;20471;-76
2022/03/08 10:00:16;;;;;;;3.73;3.43;;;11.80;1.00;;;;;;5084764;28;20448;-77
2022/03/08 10:02:47;;;;;;;3.57;2.70;;;12.10;1.00;;;;;;5083661;28;20842;-76
2022/03/08 10:05:21;;;;;;;6.80;3.20;;;12.10;1.00;;;;;;5078350;28;20550;-77
2022/03/08 10:08:08;;;;;;;4.00;3.60;;;12.10;1.00;;;;;;5079212;28;20473;-77
2022/03/08 10:10:48;;;;;;;3.80;3.28;;;12.20;1.00;;;;;;5082614;28;20507;-76
2022/03/08 10:13:25;;;;;;;6.03;3.57;;;12.00;1.00;;;;;;5082201;28;20252;-77
2022/03/08 10:16:07;;;;;;;3.93;3.63;;;11.90;1.00;;;;;;5078382;28;20467;-77
2022/03/08 10:18:38;;;;;;;5.03;3.60;;;12.00;1.00;;;;;;5083402;28;20454;-76
2022/03/08 10:21:26;;;;;;;4.30;3.87;;;12.00;1.00;;;;;;5082768;28;21110;-75
2022/03/08 10:23:54;;;;;;;3.40;3.10;;;12.20;1.00;;;;;;5078352;28;20456;-76
2022/03/08 10:26:23;;;;;;;5.80;4.07;;;12.10;1.00;;;;;;5078596;28;20519;-76
2022/03/08 10:28:54;;;;;;;4.30;3.90;;;12.10;1.00;;;;;;5084408;28;20575;-76
2022/03/08 10:31:23;;;;;;;5.07;3.10;;;12.20;1.00;;;;;;5084997;28;20452;-77
2022/03/08 10:33:52;;;;;;;3.53;3.00;;;12.30;1.00;;;;;;5081256;28;20455;-76
2022/03/08 10:36:26;;;;;;;4.77;3.40;;;12.50;1.00;;;;;;5076935;28;20486;-77
2022/03/08 10:39:07;;;;;;;8.00;3.33;;;12.60;1.00;;;;;;5076161;28;20493;-76
2022/03/08 10:41:40;;;;;;;5.90;3.43;;;12.90;1.00;;;;;;5077801;28;20442;-76
2022/03/08 10:44:08;;;;;;;4.57;4.27;;;13.00;1.00;;;;;;5078481;28;20463;-76
2022/03/08 10:46:36;;;;;;;4.03;3.00;;;13.40;1.00;;;;;;5085589;28;21114;-76
2022/03/08 10:49:12;;;;;;;5.40;3.70;;;13.90;1.00;;;;;;5080516;28;20456;-76
2022/03/08 10:51:41;;;;;;;3.83;3.23;;;14.20;1.00;;;;;;5076122;28;20213;-76
2022/03/08 10:54:14;;;;;;;4.17;3.43;;;14.30;1.00;;;;;;5083134;28;20475;-77
2022/03/08 10:56:46;;;;;;;5.03;4.53;;;14.50;1.00;;;;;;5077334;28;20469;-77
2022/03/08 10:59:17;;;;;;;4.57;3.63;;;14.60;1.00;;;;;;5073864;28;21131;-76
2022/03/08 11:01:46;;;;;;;5.53;3.83;;;14.60;1.00;;;;;;5085512;28;20446;-77
2022/03/08 11:04:19;;;;;;;3.53;3.23;;;14.90;1.00;;;;;;5084875;28;20463;-77
2022/03/08 11:06:52;;;;;;;4.53;3.33;;;15.00;1.00;;;;;;5080046;28;20531;-77
2022/03/08 11:09:22;;;;;;;3.40;3.10;;;15.40;1.00;;;;;;5093765;28;20488;-77
2022/03/08 11:11:51;;;;;;;4.10;3.70;;;15.60;1.00;;;;;;5082336;28;20962;-77
2022/03/08 11:14:19;;;;;;;3.47;3.17;;;15.90;1.00;;;;;;5083165;28;20531;-77
2022/03/08 11:16:51;;;;;;;4.10;3.30;;;16.10;1.00;;;;;;5080483;28;20914;-77
2022/03/08 11:19:26;;;;;;;7.53;3.90;;;15.80;1.00;;;;;;5077367;28;20468;-77
2022/03/08 11:21:57;;;;;;;3.70;3.40;;;15.90;1.00;;;;;;5082714;28;20457;-77
2022/03/08 11:24:27;;;;;;;3.50;3.20;;;16.00;1.00;;;;;;5082862;28;20479;-78
2022/03/08 11:26:56;;;;;;;5.60;3.90;;;16.00;1.00;;;;;;5080793;28;20530;-77
2022/03/08 11:29:26;;;;;;;3.03;2.73;;;16.30;1.00;;;;;;5075817;28;20809;-76
2022/03/08 11:31:59;;;;;;;3.50;3.20;;;16.40;1.00;;;;;;5085782;28;20462;-78
2022/03/08 11:34:34;;;;;;;4.10;3.80;;;16.50;1.00;;;;;;5083228;28;20515;-78
2022/03/08 11:37:15;;;;;;;3.77;3.47;;;16.60;1.00;;;;;;5076144;28;20523;-76
2022/03/08 11:39:43;;;;;;;4.63;3.63;;;16.30;1.00;;;;;;5077607;28;20452;-78
2022/03/08 11:42:31;;;;;;;5.00;3.20;;;15.90;1.00;;;;;;5075799;28;20478;-77
2022/03/08 11:45:01;;;;;;;3.53;3.23;;;15.50;1.00;;;;;;5077118;28;21065;-78
2022/03/08 11:47:38;;;;;;;4.70;4.20;;;14.90;1.00;;;;;;5077895;28;20523;-78
2022/03/08 11:50:18;;;;;;;4.00;3.60;;;14.60;1.00;;;;;;5076843;28;20620;-77
2022/03/08 11:53:05;;;;;;;4.53;4.07;;;14.10;1.00;;;;;;5079670;28;20446;-77
2022/03/08 11:55:36;;;;;;;4.53;4.13;;;13.60;1.00;;;;;;5075331;28;20966;-77
2022/03/08 11:58:05;;;;;;;3.97;3.33;;;13.60;1.00;;;;;;5079437;28;20988;-77
2022/03/08 12:00:40;;;;;;;4.80;4.00;;;13.40;1.00;;;;;;5081436;28;20925;-78
2022/03/08 12:03:11;;;;;;;4.13;3.73;;;13.60;1.00;;;;;;5080346;28;20190;-77
2022/03/08 12:05:57;;;;;;;5.03;3.43;;;13.70;1.00;;;;;;5077764;28;20523;-77
2022/03/08 12:09:02;;;;;;;4.97;3.50;;;13.80;1.00;;;;;;5082496;28;20491;-79
2022/03/08 12:11:40;;;;;;;4.67;3.13;;;14.00;1.00;;;;;;5080262;28;20453;-78
2022/03/08 12:14:27;;;;;;;5.90;3.70;;;13.80;1.00;;;;;;5088379;28;20453;-79
2022/03/08 12:17:08;;;;;;;4.03;3.57;;;13.70;1.00;;;;;;5089733;28;20472;-77
2022/03/08 12:19:39;;;;;;;4.13;3.70;;;13.50;1.00;;;;;;5085028;28;20455;-80
2022/03/08 12:22:12;;;;;;;3.83;3.43;;;13.00;1.00;;;;;;5091085;28;20463;-78
2022/03/08 12:24:47;;;;;;;3.27;2.93;;;12.80;1.00;;;;;;5088117;28;20456;-77
2022/03/08 12:27:16;;;;;;;4.50;4.10;;;12.90;1.00;;;;;;5080748;28;20467;-77
2022/03/08 12:30:03;;;;;;;3.80;3.50;;;12.90;1.00;;;;;;5082845;28;20466;-77
2022/03/08 12:32:37;;;;;;;6.73;3.70;;;12.50;1.00;;;;;;5092454;28;20459;-77
2022/03/08 12:35:17;;;;;;;4.20;3.20;;;12.50;1.00;;;;;;5092300;28;20490;-77
2022/03/08 12:37:50;;;;;;;4.40;3.43;;;12.50;1.00;;;;;;5091598;28;20479;-78
2022/03/08 12:40:26;;;;;;;3.90;3.50;;;12.70;1.00;;;;;;5077637;28;20517;-79
2022/03/08 12:42:56;;;;;;;4.47;3.42;;;12.90;1.00;;;;;;5092158;28;20522;-77
2022/03/08 12:45:26;;;;;;;4.93;3.60;;;13.10;1.00;;;;;;5092243;28;20250;-76
2022/03/08 12:47:58;;;;;;;3.40;3.10;;;13.40;1.00;;;;;;5088284;28;20470;-77
2022/03/08 12:50:29;;;;;;;3.33;3.03;;;13.50;1.00;;;;;;5089502;28;20509;-78
2022/03/08 12:52:59;;;;;;;4.80;2.97;;;13.60;1.00;;;;;;5083719;28;20490;-77
2022/03/08 12:55:31;;;;;;;5.80;4.27;;;13.60;1.00;;;;;;5083274;28;20589;-77
2022/03/08 12:58:01;;;;;;;3.37;3.03;;;13.60;1.00;;;;;;5084489;28;20475;-77
2022/03/08 13:00:38;;;;;;;5.23;3.10;;;13.70;1.00;;;;;;5086837;28;20537;-77
2022/03/08 13:03:10;;;;;;;5.67;3.70;;;13.70;1.00;;;;;;5087174;28;20477;-77
2022/03/08 13:05:42;;;;;;;4.20;3.43;;;13.70;1.00;;;;;;5081321;28;20466;-78
2022/03/08 13:08:12;;;;;;;3.00;2.77;;;13.70;1.00;;;;;;5086800;28;20573;-78
2022/03/08 13:10:51;;;;;;;3.57;3.20;;;13.70;1.00;;;;;;5087244;28;20484;-77
2022/03/08 13:13:43;;;;;;;4.10;3.70;;;13.80;1.00;;;;;;5089014;28;20436;-77
2022/03/08 13:16:17;;;;;;;5.93;3.83;;;13.80;1.00;;;;;;5087457;28;20829;-78
2022/03/08 13:18:49;;;;;;;5.37;3.50;;;13.50;1.00;;;;;;5091505;28;20490;-78